Time;durP1;ratioP1;P1;durP2;ratioP2;P2;SDS_P1;SDS_P2;PMS_P1;PMS_P2;Temp;Humidity;BMP_temperature;BMP_pressure;BME280_temperature;BME280_humidity;BME280_pressure;Samples;Min_cycle;Max_cycle;Signal;HPM_P1;HPM_P2
2021/01/11 00:01:01;;;;;;;94.50;40.47;;;-1.60;99.10;;;;;;5049791;28;20035;-73
2021/01/11 00:03:26;;;;;;;93.30;40.00;;;-1.60;99.90;;;;;;5049783;28;20031;-74
2021/01/11 00:05:52;;;;;;;100.93;41.58;;;-1.40;99.90;;;;;;5051152;28;20013;-77
2021/01/11 00:08:18;;;;;;;96.35;38.70;;;-1.30;98.20;;;;;;5049831;28;20025;-74
2021/01/11 00:10:44;;;;;;;96.00;40.80;;;-1.30;97.60;;;;;;5051318;28;20059;-74
2021/01/11 00:13:09;;;;;;;88.22;38.08;;;-1.30;96.40;;;;;;5051318;28;20028;-74
2021/01/11 00:15:35;;;;;;;83.68;38.08;;;-1.70;96.30;;;;;;5049653;28;20029;-73
2021/01/11 00:18:01;;;;;;;93.47;39.03;;;-1.80;98.50;;;;;;5049799;28;20500;-73
2021/01/11 00:20:27;;;;;;;99.85;40.17;;;-2.00;98.80;;;;;;5049517;28;20056;-73
2021/01/11 00:22:52;;;;;;;90.93;40.20;;;-2.00;99.90;;;;;;5033048;28;20068;-74
2021/01/11 00:25:18;;;;;;;82.70;36.55;;;-1.90;99.90;;;;;;5050748;28;20385;-74
2021/01/11 00:27:44;;;;;;;98.63;41.38;;;-2.00;99.90;;;;;;5049771;28;20021;-74
2021/01/11 00:30:11;;;;;;;79.93;35.55;;;-2.00;99.90;;;;;;5049460;28;20091;-74
2021/01/11 00:32:38;;;;;;;94.07;40.28;;;-2.00;98.70;;;;;;5050555;28;20048;-74
2021/01/11 00:35:05;;;;;;;90.28;38.60;;;-2.00;99.90;;;;;;5050320;28;20036;-74
2021/01/11 00:37:32;;;;;;;86.97;37.53;;;-1.90;99.90;;;;;;5050595;28;20500;-74
2021/01/11 00:39:58;;;;;;;90.70;37.72;;;-1.80;99.90;;;;;;5049197;28;20029;-73
2021/01/11 00:42:23;;;;;;;89.85;38.97;;;-1.60;99.80;;;;;;5049381;28;20396;-73
2021/01/11 00:44:49;;;;;;;94.53;39.92;;;-1.50;98.20;;;;;;5050034;28;20029;-73
2021/01/11 00:47:15;;;;;;;89.60;36.53;;;-1.40;98.00;;;;;;5050525;28;20029;-74
2021/01/11 00:49:41;;;;;;;96.65;38.17;;;-1.60;97.40;;;;;;5050523;28;20021;-73
2021/01/11 00:52:07;;;;;;;81.70;37.58;;;-1.80;96.30;;;;;;5050531;28;20044;-72
2021/01/11 00:54:33;;;;;;;90.53;38.45;;;-1.90;96.90;;;;;;5032344;28;20611;-73
2021/01/11 00:56:59;;;;;;;87.25;35.97;;;-2.00;98.20;;;;;;5050657;28;20132;-73
2021/01/11 00:59:28;;;;;;;85.60;37.85;;;-2.10;98.30;;;;;;5032447;28;20071;-73
2021/01/11 01:01:54;;;;;;;92.45;36.67;;;-2.00;99.90;;;;;;5049104;28;20028;-74
2021/01/11 01:04:20;;;;;;;91.72;37.40;;;-2.00;99.40;;;;;;5050282;28;20025;-73
2021/01/11 01:06:46;;;;;;;84.25;36.15;;;-1.70;99.90;;;;;;5050330;28;20523;-73
2021/01/11 01:09:12;;;;;;;80.13;33.75;;;-1.80;98.30;;;;;;5049034;28;20029;-74
2021/01/11 01:11:40;;;;;;;92.45;38.00;;;-1.60;96.50;;;;;;5050405;28;20151;-74
2021/01/11 01:14:06;;;;;;;86.70;35.10;;;-1.80;95.80;;;;;;5048825;28;20063;-74
2021/01/11 01:16:32;;;;;;;94.55;36.10;;;-2.10;95.90;;;;;;5050168;28;20492;-74
2021/01/11 01:18:59;;;;;;;93.05;36.65;;;-2.10;99.70;;;;;;5048877;28;20060;-74
2021/01/11 01:21:25;;;;;;;83.30;37.97;;;-1.90;99.80;;;;;;5048893;28;20053;-74
2021/01/11 01:23:51;;;;;;;83.00;34.67;;;-1.70;98.60;;;;;;5049017;28;20518;-73
2021/01/11 01:26:17;;;;;;;85.00;35.88;;;-1.70;96.20;;;;;;5050153;28;20040;-74
2021/01/11 01:28:42;;;;;;;84.55;34.65;;;-1.70;96.20;;;;;;5049118;28;20475;-74
2021/01/11 01:31:08;;;;;;;81.13;34.63;;;-1.60;95.80;;;;;;5048784;28;20039;-73
2021/01/11 01:33:34;;;;;;;84.18;35.28;;;-1.70;95.80;;;;;;5048688;28;20017;-74
2021/01/11 01:36:01;;;;;;;86.63;37.53;;;-1.80;95.50;;;;;;5050218;28;20053;-73
2021/01/11 01:38:26;;;;;;;87.78;37.33;;;-1.90;95.30;;;;;;5050186;28;20090;-73
2021/01/11 01:40:52;;;;;;;91.38;38.25;;;-1.90;95.70;;;;;;5049992;28;20017;-73
2021/01/11 01:43:18;;;;;;;86.72;36.90;;;-2.00;96.30;;;;;;5052425;28;20029;-73
2021/01/11 01:45:44;;;;;;;86.38;35.33;;;-2.00;97.10;;;;;;5035532;28;20123;-72
2021/01/11 01:48:11;;;;;;;78.10;33.35;;;-2.00;95.50;;;;;;5053563;28;20037;-72
2021/01/11 01:50:37;;;;;;;83.45;35.92;;;-2.00;95.60;;;;;;5052255;28;20032;-74
2021/01/11 01:53:03;;;;;;;90.72;37.47;;;-1.90;96.80;;;;;;5052293;28;20397;-73
2021/01/11 01:55:29;;;;;;;89.65;39.75;;;-2.00;94.90;;;;;;5052150;28;20025;-74
2021/01/11 01:58:02;;;;;;;81.53;35.92;;;-2.00;95.90;;;;;;5052158;28;20036;-74
2021/01/11 02:00:27;;;;;;;85.63;35.17;;;-2.00;95.60;;;;;;5053246;28;20021;-74
2021/01/11 02:02:53;;;;;;;88.03;38.13;;;-2.10;94.20;;;;;;5053514;28;20040;-74
2021/01/11 02:05:19;;;;;;;81.47;34.72;;;-2.10;94.60;;;;;;5053329;28;20025;-73
2021/01/11 02:08:00;;;;;;;95.55;37.25;;;-2.10;95.10;;;;;;5053561;28;20499;-74
2021/01/11 02:10:54;;;;;;;92.18;36.67;;;-2.10;95.00;;;;;;5052195;28;20021;-73
2021/01/11 02:13:20;;;;;;;88.97;36.60;;;-2.30;94.70;;;;;;5053285;28;20040;-73
2021/01/11 02:15:59;;;;;;;87.65;37.67;;;-2.50;96.10;;;;;;5035070;28;20025;-74
2021/01/11 02:18:39;;;;;;;98.95;37.92;;;-2.40;95.60;;;;;;5053126;28;20139;-73
2021/01/11 02:21:29;;;;;;;96.05;37.95;;;-2.50;96.90;;;;;;5051900;28;20017;-73
2021/01/11 02:24:10;;;;;;;84.78;34.75;;;-2.30;97.00;;;;;;5052944;28;20481;-73
2021/01/11 02:27:08;;;;;;;91.03;37.10;;;-2.40;94.60;;;;;;5052883;28;20036;-74
2021/01/11 02:29:58;;;;;;;98.32;37.47;;;-2.50;95.10;;;;;;5052146;28;20027;-73
2021/01/11 02:32:26;;;;;;;85.15;36.03;;;-2.40;96.00;;;;;;5051749;28;20025;-74
2021/01/11 02:34:55;;;;;;;88.72;35.97;;;-2.40;96.10;;;;;;5052533;28;20405;-73
2021/01/11 02:37:21;;;;;;;100.47;35.90;;;-2.50;95.80;;;;;;5051416;28;20024;-73
2021/01/11 02:39:47;;;;;;;99.13;39.83;;;-2.80;95.30;;;;;;5052617;28;20033;-73
2021/01/11 02:42:12;;;;;;;93.03;37.45;;;-2.80;97.20;;;;;;5052472;28;20021;-73
2021/01/11 02:44:38;;;;;;;95.90;38.25;;;-2.80;98.20;;;;;;5064342;23;20556;-77
2021/01/11 02:47:04;;;;;;;98.78;37.47;;;-2.90;98.80;;;;;;5052121;28;20078;-77
2021/01/11 02:49:38;;;;;;;99.20;38.80;;;-3.00;98.90;;;;;;5052402;28;20094;-77
2021/01/11 02:52:26;;;;;;;87.13;36.55;;;-3.10;98.70;;;;;;5050775;28;20032;-77
2021/01/11 02:54:57;;;;;;;86.93;35.53;;;-3.00;99.90;;;;;;5051020;28;20098;-77
2021/01/11 02:57:35;;;;;;;97.53;36.17;;;-3.00;99.90;;;;;;5051799;28;20091;-77
2021/01/11 03:00:05;;;;;;;89.18;35.25;;;-2.90;99.20;;;;;;5052202;28;20033;-77
2021/01/11 03:02:35;;;;;;;85.85;33.70;;;-2.90;99.30;;;;;;5051923;28;20061;-77
2021/01/11 03:05:02;;;;;;;83.45;33.90;;;-2.90;98.30;;;;;;5052003;28;20025;-77
2021/01/11 03:07:27;;;;;;;84.75;34.55;;;-2.80;97.40;;;;;;5051802;28;20028;-77
2021/01/11 03:09:53;;;;;;;84.47;35.08;;;-2.90;96.50;;;;;;5051986;28;20407;-77
2021/01/11 03:12:19;;;;;;;88.15;34.70;;;-3.00;96.40;;;;;;5050439;28;20032;-77
2021/01/11 03:14:45;;;;;;;88.80;34.78;;;-3.10;98.20;;;;;;5051812;28;20074;-77
2021/01/11 03:17:11;;;;;;;85.95;35.20;;;-2.90;98.60;;;;;;5051487;28;20079;-77
2021/01/11 03:19:36;;;;;;;81.15;32.67;;;-2.70;96.40;;;;;;5051893;28;20021;-77
2021/01/11 03:22:03;;;;;;;84.38;33.97;;;-2.70;95.10;;;;;;5051541;28;20424;-77
2021/01/11 03:24:29;;;;;;;90.55;33.95;;;-2.90;95.40;;;;;;5051446;28;20021;-77
2021/01/11 03:26:58;;;;;;;87.68;33.55;;;-3.00;96.80;;;;;;5051361;28;20082;-77
2021/01/11 03:29:24;;;;;;;84.63;35.80;;;-3.00;98.00;;;;;;5051551;28;20108;-77
2021/01/11 03:31:50;;;;;;;87.63;35.17;;;-3.00;97.70;;;;;;5051208;28;20473;-77
2021/01/11 03:34:16;;;;;;;79.03;32.80;;;-3.20;96.30;;;;;;5051319;28;20031;-77
2021/01/11 03:36:42;;;;;;;81.72;33.22;;;-3.30;96.60;;;;;;5051442;28;20384;-77
2021/01/11 03:39:10;;;;;;;92.82;37.65;;;-3.30;99.20;;;;;;5051235;28;20017;-77
2021/01/11 03:41:37;;;;;;;93.70;38.72;;;-3.30;99.60;;;;;;5051472;28;20028;-77
2021/01/11 03:44:03;;;;;;;93.00;35.92;;;-3.40;99.90;;;;;;5050940;28;20040;-77
2021/01/11 03:46:29;;;;;;;85.78;35.90;;;-3.30;99.90;;;;;;5050130;28;20052;-77
2021/01/11 03:48:56;;;;;;;94.68;38.05;;;-3.30;99.90;;;;;;5051121;28;20044;-77
2021/01/11 03:51:22;;;;;;;99.53;37.75;;;-3.30;99.90;;;;;;5033910;28;20028;-77
2021/01/11 03:53:48;;;;;;;91.72;37.00;;;-3.20;99.90;;;;;;5051772;28;20108;-77
2021/01/11 03:56:14;;;;;;;101.18;35.50;;;-3.10;99.90;;;;;;5051546;28;20021;-77
2021/01/11 03:58:40;;;;;;;89.15;34.70;;;-3.10;98.50;;;;;;5049793;28;20036;-77
2021/01/11 04:01:05;;;;;;;79.70;31.02;;;-3.10;97.60;;;;;;5049977;28;20051;-77
2021/01/11 04:03:31;;;;;;;68.53;28.08;;;-3.20;95.80;;;;;;5050408;28;20029;-77
2021/01/11 04:05:58;;;;;;;86.07;33.00;;;-3.40;95.70;;;;;;5051265;28;20579;-77
2021/01/11 04:08:24;;;;;;;76.30;29.42;;;-3.40;97.90;;;;;;5049494;28;20032;-77
2021/01/11 04:10:51;;;;;;;71.18;31.25;;;-3.50;96.00;;;;;;5032924;28;20157;-77
2021/01/11 04:13:17;;;;;;;80.57;29.65;;;-3.70;97.20;;;;;;5049651;28;20048;-77
2021/01/11 04:15:43;;;;;;;87.15;31.65;;;-3.60;96.00;;;;;;5050504;28;20140;-77
2021/01/11 04:18:09;;;;;;;94.20;32.28;;;-3.60;97.20;;;;;;5050890;28;20104;-77
2021/01/11 04:20:35;;;;;;;98.47;35.05;;;-3.50;97.90;;;;;;5050874;28;20021;-77
2021/01/11 04:23:03;;;;;;;88.45;31.58;;;-3.50;96.50;;;;;;5050790;28;20051;-77
2021/01/11 04:25:29;;;;;;;83.28;30.20;;;-3.60;97.00;;;;;;5050437;28;20523;-77
2021/01/11 04:27:59;;;;;;;84.88;35.10;;;-3.70;97.00;;;;;;5049418;28;20250;-77
2021/01/11 04:30:26;;;;;;;95.35;34.05;;;-3.70;98.80;;;;;;5049354;28;20028;-77
2021/01/11 04:32:53;;;;;;;88.03;33.83;;;-3.70;99.10;;;;;;5032833;28;20047;-77
2021/01/11 04:35:20;;;;;;;101.85;32.90;;;-3.70;98.80;;;;;;5032477;28;20438;-78
2021/01/11 04:37:46;;;;;;;97.40;32.20;;;-3.70;98.20;;;;;;5050619;28;20025;-77
2021/01/11 04:40:12;;;;;;;87.68;31.75;;;-3.80;98.20;;;;;;5049217;28;20017;-77
2021/01/11 04:42:47;;;;;;;103.55;33.28;;;-3.70;97.60;;;;;;5049393;28;20040;-77
2021/01/11 04:45:17;;;;;;;121.47;36.88;;;-3.80;97.30;;;;;;5050457;28;20523;-77
2021/01/11 04:47:44;;;;;;;115.13;34.60;;;-3.90;98.40;;;;;;5049421;28;20115;-77
2021/01/11 04:50:11;;;;;;;130.90;36.15;;;-4.00;97.70;;;;;;5050281;28;20060;-77
2021/01/11 04:52:38;;;;;;;97.88;34.92;;;-4.10;97.90;;;;;;5050687;28;20107;-77
2021/01/11 04:55:07;;;;;;;107.50;34.92;;;-3.90;99.90;;;;;;5050338;28;20029;-77
2021/01/11 04:57:35;;;;;;;156.40;37.97;;;-4.10;99.40;;;;;;5050254;28;20044;-77
2021/01/11 05:00:08;;;;;;;106.32;36.13;;;-4.10;99.90;;;;;;5049172;28;20098;-77
2021/01/11 05:02:44;;;;;;;140.05;33.28;;;-4.00;98.60;;;;;;5050156;28;20029;-77
2021/01/11 05:05:11;;;;;;;128.30;32.30;;;-3.90;99.90;;;;;;5050181;28;20033;-77
2021/01/11 05:07:37;;;;;;;149.68;32.05;;;-4.10;98.60;;;;;;5050138;28;20032;-77
2021/01/11 05:10:04;;;;;;;121.57;30.27;;;-4.10;99.00;;;;;;5050261;28;20388;-77
2021/01/11 05:12:31;;;;;;;107.85;27.17;;;-4.10;99.40;;;;;;5050084;28;20037;-77
2021/01/11 05:15:17;;;;;;;96.80;28.55;;;-4.30;99.90;;;;;;5050167;28;20035;-77
2021/01/11 05:17:44;;;;;;;112.32;31.88;;;-4.20;99.20;;;;;;5053705;28;20040;-77
2021/01/11 05:20:14;;;;;;;155.52;30.35;;;-4.40;98.20;;;;;;5054183;28;20017;-77
2021/01/11 05:22:47;;;;;;;117.38;29.92;;;-4.50;99.80;;;;;;5052495;28;20108;-77
2021/01/11 05:25:15;;;;;;;97.00;29.55;;;-4.50;99.90;;;;;;5053920;28;20032;-77
2021/01/11 05:27:42;;;;;;;80.95;31.70;;;-4.40;99.90;;;;;;5052501;28;20029;-77
2021/01/11 05:30:21;;;;;;;94.50;31.70;;;-4.60;99.90;;;;;;5052720;28;20443;-77
2021/01/11 05:32:48;;;;;;;79.45;27.90;;;-4.70;99.90;;;;;;5053437;28;20074;-77
2021/01/11 05:35:21;;;;;;;62.17;26.77;;;-4.70;98.70;;;;;;5053783;28;20443;-76
2021/01/11 05:37:47;;;;;;;77.32;27.50;;;-4.90;97.80;;;;;;5053517;28;20036;-76
2021/01/11 05:40:15;;;;;;;71.63;29.17;;;-5.00;96.70;;;;;;5054029;28;20419;-77
2021/01/11 05:42:47;;;;;;;71.72;25.48;;;-5.10;97.60;;;;;;5052795;28;20075;-76
2021/01/11 05:45:28;;;;;;;88.88;28.67;;;-5.40;97.70;;;;;;5052867;28;20112;-77
2021/01/11 05:47:56;;;;;;;69.28;25.40;;;-5.50;99.90;;;;;;5053723;28;20546;-77
2021/01/11 05:50:24;;;;;;;96.15;29.35;;;-5.60;98.90;;;;;;5052543;28;20113;-76
2021/01/11 05:52:50;;;;;;;130.27;29.13;;;-5.80;98.60;;;;;;5052101;28;20036;-75
2021/01/11 05:55:20;;;;;;;139.70;28.35;;;-5.90;98.10;;;;;;5053375;28;20032;-76
2021/01/11 05:58:13;;;;;;;101.65;28.88;;;-6.00;99.90;;;;;;5051865;28;20020;-77
2021/01/11 06:00:40;;;;;;;72.75;27.80;;;-6.00;99.90;;;;;;5050463;28;20036;-77
2021/01/11 06:03:07;;;;;;;76.30;28.42;;;-6.00;99.90;;;;;;5053246;28;20108;-77
2021/01/11 06:05:34;;;;;;;68.47;26.08;;;-6.00;99.30;;;;;;5053300;28;20043;-76
2021/01/11 06:08:01;;;;;;;66.35;25.10;;;-5.90;97.60;;;;;;5053143;28;20033;-77
2021/01/11 06:10:27;;;;;;;64.38;24.25;;;-6.00;97.80;;;;;;5053454;28;20029;-77
2021/01/11 06:12:53;;;;;;;51.92;23.73;;;-6.20;99.40;;;;;;5053072;28;20039;-77
2021/01/11 06:15:21;;;;;;;53.75;24.58;;;-6.30;98.60;;;;;;5052613;28;20029;-77
2021/01/11 06:17:50;;;;;;;60.28;23.05;;;-6.20;98.10;;;;;;5052916;28;20051;-77
2021/01/11 06:20:21;;;;;;;67.35;23.90;;;-6.30;97.10;;;;;;5052705;28;20053;-77
2021/01/11 06:22:46;;;;;;;62.72;17.20;;;-6.50;97.10;;;;;;5052819;28;20109;-77
2021/01/11 06:25:18;;;;;;;97.10;21.35;;;-6.60;96.90;;;;;;5054648;28;20108;-76
2021/01/11 06:27:57;;;;;;;;;;;-6.40;98.40;;;;;;5066321;28;20040;-77
2021/01/11 06:30:43;;;;;;;56.10;20.60;;;-6.40;98.30;;;;;;5051395;28;20389;-77
2021/01/11 06:33:38;;;;;;;79.75;22.50;;;-6.50;97.30;;;;;;5067142;28;20052;-77
2021/01/11 06:36:18;;;;;;;73.22;20.73;;;-6.50;99.90;;;;;;5070089;28;20083;-77
2021/01/11 06:38:45;;;;;;;62.50;20.90;;;-6.50;97.90;;;;;;5072164;28;20028;-77
2021/01/11 06:41:13;;;;;;;71.20;24.17;;;-6.60;95.70;;;;;;5060572;28;20404;-76
2021/01/11 06:43:53;;;;;;;48.45;21.58;;;-6.70;96.20;;;;;;5033410;28;20079;-77
2021/01/11 06:46:28;;;;;;;79.90;23.75;;;-6.70;96.10;;;;;;5051829;28;20587;-77
2021/01/11 06:48:58;;;;;;;69.07;21.63;;;-6.50;96.10;;;;;;5050870;28;20025;-77
2021/01/11 06:51:32;;;;;;;57.28;20.90;;;-6.60;93.30;;;;;;5051883;28;20032;-77
2021/01/11 06:54:13;;;;;;;55.28;22.48;;;-6.80;93.90;;;;;;5050719;28;20039;-76
2021/01/11 06:56:40;;;;;;;70.22;22.25;;;-6.80;94.20;;;;;;5051875;28;20036;-77
2021/01/11 06:59:16;;;;;;;74.35;23.80;;;-7.10;94.60;;;;;;5050863;28;20025;-76
2021/01/11 07:01:43;;;;;;;87.75;25.30;;;-7.10;96.70;;;;;;5051988;28;20051;-77
2021/01/11 07:04:11;;;;;;;83.70;23.38;;;-7.00;97.40;;;;;;5051760;28;20052;-77
2021/01/11 07:06:37;;;;;;;78.70;25.33;;;-7.00;97.20;;;;;;5052088;28;20013;-77
2021/01/11 07:09:06;;;;;;;88.90;25.80;;;-6.90;97.90;;;;;;5052245;28;20031;-77
2021/01/11 07:11:36;;;;;;;61.45;25.55;;;-6.90;97.40;;;;;;5050354;28;20021;-77
2021/01/11 07:14:03;;;;;;;61.75;22.85;;;-6.90;97.60;;;;;;5050985;28;20017;-77
2021/01/11 07:16:50;;;;;;;62.13;22.77;;;-6.90;96.40;;;;;;5051149;28;20082;-77
2021/01/11 07:19:36;;;;;;;58.67;24.00;;;-7.00;94.50;;;;;;5051395;28;20029;-76
2021/01/11 07:22:03;;;;;;;56.40;24.70;;;-7.20;93.70;;;;;;5039363;28;20039;-77
2021/01/11 07:24:29;;;;;;;59.83;20.55;;;-7.20;94.20;;;;;;5051243;28;20032;-77
2021/01/11 07:26:56;;;;;;;48.80;19.85;;;-7.40;93.70;;;;;;5051549;28;20033;-76
2021/01/11 07:29:22;;;;;;;49.80;21.27;;;-7.30;94.00;;;;;;5056550;28;20071;-76
2021/01/11 07:31:48;;;;;;;74.15;21.77;;;-7.10;93.10;;;;;;5068901;28;20425;-76
2021/01/11 07:34:15;;;;;;;48.17;20.70;;;-7.10;92.60;;;;;;5051191;28;20033;-77
2021/01/11 07:36:46;;;;;;;71.63;18.35;;;-7.10;92.90;;;;;;5054884;28;20035;-76
2021/01/11 07:39:20;;;;;;;82.07;21.92;;;-7.10;91.70;;;;;;5070481;28;20029;-77
2021/01/11 07:41:57;;;;;;;92.18;23.65;;;-7.20;91.50;;;;;;5070318;28;20029;-77
2021/01/11 07:44:43;;;;;;;59.70;22.55;;;-7.30;91.40;;;;;;5062220;28;20472;-77
2021/01/11 07:47:14;;;;;;;80.10;23.52;;;-7.30;91.50;;;;;;5051290;28;20021;-75
2021/01/11 07:49:48;;;;;;;73.47;20.77;;;-7.50;91.70;;;;;;5049030;28;20032;-75
2021/01/11 07:52:19;;;;;;;48.78;20.40;;;-7.50;92.10;;;;;;5049117;28;20028;-75
2021/01/11 07:54:46;;;;;;;34.25;15.70;;;-7.80;92.00;;;;;;5052533;28;20028;-75
2021/01/11 07:57:15;;;;;;;39.47;18.58;;;-7.80;92.60;;;;;;5050972;28;20116;-74
2021/01/11 07:59:44;;;;;;;47.40;18.20;;;-7.90;92.30;;;;;;5049026;28;20059;-74
2021/01/11 08:02:13;;;;;;;59.45;17.58;;;-8.10;93.30;;;;;;5050127;28;20388;-76
2021/01/11 08:04:40;;;;;;;46.75;18.25;;;-7.90;94.20;;;;;;5050175;28;20028;-76
2021/01/11 08:07:10;;;;;;;85.65;21.52;;;-7.60;93.10;;;;;;5049671;28;20029;-79
2021/01/11 08:09:37;;;;;;;40.92;15.40;;;-7.30;92.30;;;;;;5050616;28;20102;-77
2021/01/11 08:12:07;;;;;;;48.33;16.38;;;-7.30;90.20;;;;;;5049686;28;20032;-78
2021/01/11 08:14:33;;;;;;;42.28;16.17;;;-7.40;90.60;;;;;;5047249;28;20078;-76
2021/01/11 08:17:01;;;;;;;41.22;16.65;;;-7.10;90.60;;;;;;5049279;28;20100;-78
2021/01/11 08:19:27;;;;;;;65.43;17.95;;;-6.60;90.10;;;;;;5049726;28;20017;-78
2021/01/11 08:21:58;;;;;;;66.72;19.10;;;-6.60;90.00;;;;;;5048471;28;20499;-77
2021/01/11 08:24:23;;;;;;;55.08;17.38;;;-6.60;88.60;;;;;;5049202;28;20044;-78
2021/01/11 08:26:57;;;;;;;67.47;18.45;;;-6.70;89.50;;;;;;5046750;28;20033;-78
2021/01/11 08:29:23;;;;;;;55.35;17.15;;;-6.70;89.20;;;;;;5048755;28;20009;-78
2021/01/11 08:31:49;;;;;;;64.25;22.80;;;-6.50;89.20;;;;;;5048536;28;20021;-78
2021/01/11 08:34:15;;;;;;;102.30;23.98;;;-6.30;89.80;;;;;;5047663;28;20110;-76
2021/01/11 08:36:41;;;;;;;65.03;23.48;;;-6.10;89.20;;;;;;5048372;28;20056;-76
2021/01/11 08:39:09;;;;;;;60.40;22.08;;;-5.80;89.70;;;;;;5031188;28;20102;-77
2021/01/11 08:41:47;;;;;;;130.02;26.27;;;-5.50;89.40;;;;;;5046695;28;20036;-77
2021/01/11 08:44:41;;;;;;;69.95;20.52;;;-5.30;89.30;;;;;;5047821;28;20431;-77
2021/01/11 08:47:08;;;;;;;95.50;21.23;;;-5.00;90.10;;;;;;5049036;28;20029;-77
2021/01/11 08:49:55;;;;;;;42.53;16.70;;;-5.00;90.00;;;;;;5049847;28;20485;-76
2021/01/11 08:52:30;;;;;;;48.42;16.17;;;-5.20;87.50;;;;;;5053286;28;20025;-77
2021/01/11 08:54:56;;;;;;;84.05;16.45;;;-5.50;86.40;;;;;;5049308;28;20020;-76
2021/01/11 08:57:27;;;;;;;65.60;15.85;;;-5.80;85.70;;;;;;5051725;28;20100;-76
2021/01/11 08:59:54;;;;;;;37.08;15.85;;;-6.20;87.00;;;;;;5053535;28;20031;-77
2021/01/11 09:02:27;;;;;;;30.88;14.63;;;-6.20;87.80;;;;;;5053074;28;20025;-76
2021/01/11 09:04:53;;;;;;;36.85;14.32;;;-5.90;87.20;;;;;;5053457;28;20025;-77
2021/01/11 09:07:33;;;;;;;77.13;19.27;;;-5.70;86.40;;;;;;5053440;28;20036;-77
2021/01/11 09:09:59;;;;;;;81.55;21.52;;;-5.50;86.10;;;;;;5053596;28;20024;-77
2021/01/11 09:12:31;;;;;;;81.13;17.70;;;-5.70;86.90;;;;;;5053200;28;20542;-77
2021/01/11 09:14:57;;;;;;;39.10;15.15;;;-5.60;89.40;;;;;;5051579;28;20497;-77
2021/01/11 09:17:31;;;;;;;55.17;15.65;;;-5.50;89.10;;;;;;5053697;28;20503;-77
2021/01/11 09:20:02;;;;;;;84.75;15.32;;;-5.30;89.50;;;;;;5052592;28;20032;-77
2021/01/11 09:22:34;;;;;;;35.35;13.70;;;-5.30;89.00;;;;;;5053023;28;20021;-76
2021/01/11 09:25:01;;;;;;;46.25;11.38;;;-5.10;88.90;;;;;;5052073;28;20017;-77
2021/01/11 09:27:27;;;;;;;53.45;15.25;;;-4.80;88.40;;;;;;5052739;28;20087;-77
2021/01/11 09:29:53;;;;;;;51.75;15.55;;;-4.50;88.80;;;;;;5051161;28;20029;-77
2021/01/11 09:32:19;;;;;;;23.10;13.13;;;-4.20;86.40;;;;;;5051757;28;20512;-77
2021/01/11 09:34:45;;;;;;;48.10;14.73;;;-4.20;85.50;;;;;;5052167;28;20028;-77
2021/01/11 09:39:40;;;;;;;32.97;13.50;;;-3.80;85.50;;;;;;5042329;28;20053;-73
2021/01/11 09:42:05;;;;;;;65.82;15.70;;;-3.50;84.80;;;;;;5039711;28;20021;-73
2021/01/11 09:44:32;;;;;;;40.50;14.70;;;-3.00;83.80;;;;;;5038894;28;20362;-73
2021/01/11 09:46:59;;;;;;;25.42;12.57;;;-2.80;82.80;;;;;;5048845;28;20016;-73
2021/01/11 09:49:25;;;;;;;34.42;13.90;;;-2.30;82.50;;;;;;5038166;28;20701;-73
2021/01/11 09:51:52;;;;;;;33.20;14.05;;;-1.60;80.00;;;;;;5046864;28;20021;-73
2021/01/11 09:54:19;;;;;;;49.85;13.52;;;-1.10;78.80;;;;;;5024797;28;20048;-73
2021/01/11 09:56:45;;;;;;;58.10;13.70;;;-0.50;76.30;;;;;;5047618;28;20036;-73
2021/01/11 09:59:11;;;;;;;55.60;14.82;;;-0.20;74.40;;;;;;5044870;28;20512;-73
2021/01/11 10:01:48;;;;;;;61.25;13.82;;;0.10;73.60;;;;;;5040697;28;20647;-73
2021/01/11 10:04:16;;;;;;;24.60;11.23;;;0.40;72.00;;;;;;5038851;28;20079;-73
2021/01/11 10:06:51;;;;;;;37.35;12.20;;;1.10;70.40;;;;;;5037330;28;20044;-73
2021/01/11 10:09:21;;;;;;;42.72;10.82;;;1.70;67.20;;;;;;5024335;28;20041;-73
2021/01/11 10:11:50;;;;;;;69.57;14.27;;;1.80;64.70;;;;;;5029004;28;20025;-73
2021/01/11 10:14:16;;;;;;;30.02;11.88;;;1.80;65.30;;;;;;5041644;28;20021;-73
2021/01/11 10:16:43;;;;;;;59.40;12.05;;;2.10;64.30;;;;;;5015607;28;20028;-73
2021/01/11 10:19:10;;;;;;;62.58;12.85;;;2.90;62.50;;;;;;5037249;28;20034;-73
2021/01/11 10:21:37;;;;;;;154.55;20.58;;;3.90;58.70;;;;;;5018999;28;20393;-73
2021/01/11 10:24:04;;;;;;;23.75;8.95;;;4.40;56.70;;;;;;5020658;28;20380;-73
2021/01/11 10:26:30;;;;;;;16.73;8.45;;;4.50;55.00;;;;;;5040200;28;20511;-74
2021/01/11 10:28:56;;;;;;;27.30;9.15;;;5.10;54.00;;;;;;5037204;28;20025;-74
2021/01/11 10:31:21;;;;;;;21.55;10.63;;;5.30;52.70;;;;;;5037277;28;20032;-75
2021/01/11 10:33:48;;;;;;;21.67;9.30;;;4.90;52.80;;;;;;5041924;28;20575;-75
2021/01/11 10:36:17;;;;;;;33.42;10.52;;;4.30;54.60;;;;;;5035482;28;20104;-73
2021/01/11 10:38:43;;;;;;;17.08;8.57;;;4.80;54.50;;;;;;5018894;28;20126;-73
2021/01/11 10:41:15;;;;;;;23.90;9.63;;;5.30;53.00;;;;;;5045261;28;20146;-73
2021/01/11 10:43:41;;;;;;;;;;;5.80;51.50;;;;;;5002973;28;20025;-73
2021/01/11 10:46:11;;;;;;;29.13;9.32;;;5.80;50.70;;;;;;5032439;28;20027;-73
2021/01/11 10:48:40;;;;;;;19.88;9.20;;;5.90;50.10;;;;;;5014444;28;20112;-73
2021/01/11 10:51:10;;;;;;;90.75;14.10;;;5.80;50.80;;;;;;5051277;28;20025;-73
2021/01/11 10:53:40;;;;;;;18.92;10.02;;;6.20;50.50;;;;;;5047132;28;20080;-73
2021/01/11 10:56:07;;;;;;;30.42;12.55;;;6.80;49.40;;;;;;5023196;28;20021;-73
2021/01/11 10:58:34;;;;;;;36.65;10.98;;;7.10;48.30;;;;;;5037173;28;20076;-73
2021/01/11 11:01:00;;;;;;;71.10;18.23;;;7.10;48.60;;;;;;5042164;28;20087;-73
2021/01/11 11:03:26;;;;;;;47.63;17.13;;;7.40;48.10;;;;;;5041694;28;20358;-73
2021/01/11 11:05:52;;;;;;;31.13;14.70;;;7.80;47.50;;;;;;5030058;28;20021;-73
2021/01/11 11:08:19;;;;;;;39.53;16.35;;;8.40;46.40;;;;;;5030738;28;20029;-73
2021/01/11 11:10:45;;;;;;;38.60;15.38;;;8.50;45.60;;;;;;5046739;28;20045;-74
2021/01/11 11:13:10;;;;;;;41.25;14.63;;;8.90;44.80;;;;;;5041426;28;20029;-74
2021/01/11 11:15:36;;;;;;;34.45;12.18;;;8.60;44.70;;;;;;5041844;28;20384;-73
2021/01/11 11:18:02;;;;;;;21.10;12.02;;;7.40;45.10;;;;;;5043787;28;20029;-73
2021/01/11 11:20:28;;;;;;;21.83;12.55;;;7.20;47.40;;;;;;5044363;28;20025;-73
2021/01/11 11:22:53;;;;;;;51.55;14.15;;;7.50;46.40;;;;;;5020259;28;20433;-73
2021/01/11 11:25:22;;;;;;;19.90;11.93;;;7.50;45.60;;;;;;5036071;28;20044;-73
2021/01/11 11:27:48;;;;;;;61.45;15.05;;;7.10;46.40;;;;;;5041658;28;20353;-73
2021/01/11 11:30:15;;;;;;;22.70;10.68;;;7.50;46.50;;;;;;5022103;28;20029;-73
2021/01/11 11:33:00;;;;;;;19.10;10.48;;;7.50;46.10;;;;;;5042863;28;20087;-73
2021/01/11 11:35:25;;;;;;;152.18;20.73;;;7.40;45.90;;;;;;5045098;28;20025;-73
2021/01/11 11:37:51;;;;;;;27.70;11.20;;;7.00;46.10;;;;;;5031050;28;20484;-73
2021/01/11 11:40:17;;;;;;;19.48;10.88;;;7.50;46.40;;;;;;5036742;28;20019;-73
2021/01/11 11:42:44;;;;;;;40.65;11.18;;;8.00;45.20;;;;;;5016326;28;20075;-73
2021/01/11 11:45:12;;;;;;;27.45;10.57;;;8.10;44.40;;;;;;5037056;28;20040;-73
2021/01/11 11:47:40;;;;;;;25.17;10.65;;;8.60;44.00;;;;;;5050258;28;20031;-73
2021/01/11 11:50:16;;;;;;;15.73;10.27;;;8.50;43.10;;;;;;5040915;28;20025;-73
2021/01/11 11:52:42;;;;;;;19.48;10.57;;;8.80;43.40;;;;;;5043669;28;20020;-73
2021/01/11 11:55:10;;;;;;;28.05;12.55;;;8.80;43.10;;;;;;5045560;28;20029;-73
2021/01/11 11:57:40;;;;;;;69.80;16.80;;;8.70;43.10;;;;;;5036490;28;20052;-73
2021/01/11 12:00:08;;;;;;;19.95;10.73;;;8.60;42.90;;;;;;5023150;28;20100;-73
2021/01/11 12:02:34;;;;;;;36.67;11.32;;;8.20;43.00;;;;;;5042781;28;20052;-73
2021/01/11 12:05:00;;;;;;;40.95;13.10;;;8.00;43.60;;;;;;5039980;28;20053;-73
2021/01/11 12:07:27;;;;;;;14.52;9.90;;;7.70;43.60;;;;;;5039599;28;20033;-74
2021/01/11 12:09:54;;;;;;;22.65;10.18;;;7.70;43.90;;;;;;5040041;28;20017;-73
2021/01/11 12:12:21;;;;;;;176.40;21.73;;;7.50;43.80;;;;;;5044254;28;20074;-73
2021/01/11 12:14:47;;;;;;;42.03;13.10;;;7.50;44.10;;;;;;5030340;28;20477;-73
2021/01/11 12:17:12;;;;;;;22.50;11.63;;;7.30;44.90;;;;;;5042509;28;20033;-73
2021/01/11 12:19:38;;;;;;;46.05;14.38;;;7.40;44.90;;;;;;5043684;28;20104;-73
2021/01/11 12:22:11;;;;;;;52.30;15.82;;;6.90;45.70;;;;;;5013976;28;20056;-73
2021/01/11 12:24:38;;;;;;;25.83;14.13;;;6.40;46.50;;;;;;5017858;28;20021;-73
2021/01/11 12:27:04;;;;;;;57.80;17.00;;;5.60;48.10;;;;;;5027282;28;20033;-73
2021/01/11 12:29:30;;;;;;;62.03;16.17;;;4.80;51.40;;;;;;5049970;28;20392;-73
2021/01/11 12:31:55;;;;;;;37.60;13.60;;;4.20;52.70;;;;;;5035188;28;20021;-73
2021/01/11 12:34:21;;;;;;;50.17;14.40;;;3.20;55.10;;;;;;5036151;28;20017;-73
2021/01/11 12:36:47;;;;;;;50.42;14.43;;;3.00;56.40;;;;;;5042433;28;20530;-73
2021/01/11 12:39:12;;;;;;;35.25;12.98;;;2.60;56.70;;;;;;5026600;28;20071;-73